Flight Track Log - Related Links

Times and Time Zones

All times are in EDT time to prevent confusion due to time zone crossing. See the UPS1307 flight status page for this flight to view local times or setup timezone preferences in your user account.

Time Position Orientation Groundspeed Altitude Reporting Facility
EDT Latitude Longitude Course Direction KTS MPH feet Rate Location/Type
Tue 10:32:19 PM 33.6510 -84.4190 180° South 15 17  Level FlightAware ADS-B
Tue 10:32:39 PM 33.6510 -84.4200 270° West 34 39 238 Level FlightAware ADS-B
Tue 10:33:35 PM 33.6510 -84.4250 270° West 21 24 249 Level FlightAware ADS-B
Tue 10:34:19 PM 33.6510 -84.4310 270° West 25 29 286 Level FlightAware ADS-B
Tue 10:34:49 PM 33.6510 -84.4350 270° West 18 21 323 Level FlightAware ADS-B
Tue 10:36:15 PM 33.6490 -84.4390 239° Southwest 19 22 355 Level FlightAware ADS-B
Tue 10:38:00 PM 33.6786 -84.2043 81° East  Level FlightAware Approximate
Tue 10:38:23 PM 33.6480 -84.4380 81° East 23 26  Level FlightAware ADS-B
Tue 10:38:35 PM 33.6470 -84.4380 180° South 30 35 1,200 Level FlightAware ADS-B
Tue 10:39:11 PM 33.6470 -84.4370 90° East 29 33 1,385 Level FlightAware ADS-B
Tue 10:39:53 PM 33.6470 -84.4070 90° East 156 180 1,800 2,571 Climbing FlightAware ADS-B
Tue 10:40:07 PM 33.6480 -84.3950 84° East 157 181 2,400 1,364 Climbing FlightAware ADS-B
Tue 10:40:37 PM 33.6510 -84.3660 83° East 191 220 2,800 923 Climbing FlightAware ADS-B
Tue 10:40:59 PM 33.6540 -84.3400 82° East 226 260 3,200 2,000 Climbing FlightAware ADS-B
Tue 10:41:31 PM 33.6610 -84.3000 78° East 245 282 4,600 2,625 Climbing FlightAware ADS-B
Tue 10:41:47 PM 33.6650 -84.2770 78° East 259 298 5,300 2,591 Climbing FlightAware ADS-B
Tue 10:42:15 PM 33.6730 -84.2380 76° East 273 314 6,500 2,778 Climbing FlightAware ADS-B
Tue 10:42:41 PM 33.6810 -84.1980 76° East 284 327 7,800 3,000 Climbing FlightAware ADS-B
Tue 10:43:09 PM 33.6920 -84.1550 73° East 289 333 9,200 2,583 Climbing FlightAware ADS-B
Tue 10:43:53 PM 33.7170 -84.0880 66° East 319 367 10,900 1,704 Climbing FlightAware ADS-B
Tue 10:44:30 PM 33.7410 -84.0260 65° Northeast 367 422 11,500 1,760 Climbing FlightAware ADS-B
Tue 10:45:08 PM 33.7810 -83.9610 53° Northeast 382 440 13,100 2,475 Climbing FlightAware ADS-B
Tue 10:45:50 PM 33.8270 -83.8850 54° Northeast 396 456 14,800 2,325 Climbing FlightAware ADS-B
Tue 10:46:28 PM 33.8680 -83.8160 54° Northeast 409 471 16,200 2,231 Climbing FlightAware ADS-B
Tue 10:47:08 PM 33.9130 -83.7410 54° Northeast 415 478 17,700 2,049 Climbing FlightAware ADS-B
Tue 10:47:50 PM 33.9610 -83.6640 53° Northeast 427 491 19,000 1,902 Climbing FlightAware ADS-B
Tue 10:48:30 PM 34.0110 -83.5860 52° Northeast 436 502 20,300 1,953 Climbing FlightAware ADS-B
Tue 10:49:16 PM 34.0690 -83.4950 52° Northeast 450 518 21,800 2,093 Climbing FlightAware ADS-B
Tue 10:49:56 PM 34.1200 -83.4130 53° Northeast 461 531 23,300 2,122 Climbing FlightAware ADS-B
Tue 10:50:38 PM 34.1750 -83.3250 53° Northeast 472 543 24,700 1,884 Climbing FlightAware ADS-B
Tue 10:51:22 PM 34.2340 -83.2320 52° Northeast 486 559 26,000 1,775 Climbing FlightAware ADS-B
Tue 10:51:49 PM 34.2732 -83.1729 51° Northeast 496 571 26,800 1,789 Climbing FlightAware ADS-B
Tue 10:52:19 PM 34.3169 -83.1069 51° Northeast 502 578 27,700 1,869 Climbing FlightAware ADS-B
Tue 10:52:50 PM 34.3613 -83.0396 51° Northeast 507 583 28,700 1,875 Climbing FlightAware ADS-B
Tue 10:53:23 PM 34.4098 -82.9652 52° Northeast 511 588 29,700 2,071 Climbing FlightAware ADS-B
Tue 10:54:14 PM 34.4840 -82.8520 51° Northeast 506 582 31,600 2,226 Climbing FlightAware ADS-B
Tue 10:54:25 PM 34.5002 -82.8267 52° Northeast 509 586 32,000 2,233 Climbing FlightAware ADS-B
Tue 10:54:57 PM 34.5475 -82.7542 52° Northeast 503 579 33,200 2,087 Climbing FlightAware ADS-B
Tue 10:55:34 PM 34.6008 -82.6722 52° Northeast 499 574 34,400 1,941 Climbing FlightAware ADS-B
Tue 10:56:05 PM 34.6436 -82.6060 52° Northeast 495 570 35,400 1,839 Climbing FlightAware ADS-B
Tue 10:56:36 PM 34.6877 -82.5376 52° Northeast 494 568 36,300 1,574 Climbing FlightAware ADS-B
Tue 10:57:06 PM 34.7302 -82.4716 52° Northeast 492 566 37,000 689 Climbing FlightAware ADS-B
Tue 10:57:37 PM 34.7734 -82.4043 52° Northeast 492 566 37,000  Level FlightAware ADS-B
Tue 10:58:10 PM 34.8191 -82.3331 52° Northeast 492 566 37,000  Level FlightAware ADS-B
Tue 10:58:45 PM 34.8683 -82.2565 52° Northeast 492 566 37,000  Level FlightAware ADS-B
Tue 10:59:48 PM 34.9569 -82.1180 52° Northeast 490 564 37,000  Level FlightAware ADS-B
Tue 11:00:23 PM 35.0058 -82.0411 52° Northeast 489 563 37,000  Level FlightAware ADS-B
Tue 11:00:54 PM 35.0481 -81.9746 52° Northeast 489 563 37,000  Level FlightAware ADS-B
Tue 11:01:25 PM 35.0919 -81.9054 52° Northeast 489 563 37,000  Level FlightAware ADS-B
Tue 11:01:55 PM 35.1338 -81.8392 52° Northeast 489 563 37,000  Level FlightAware ADS-B
Tue 11:02:26 PM 35.1771 -81.7708 52° Northeast 489 563 37,000  Level FlightAware ADS-B
Tue 11:02:57 PM 35.2186 -81.7052 52° Northeast 488 562 37,000  Level FlightAware ADS-B
Tue 11:03:27 PM 35.2599 -81.6395 52° Northeast 487 560 37,000  Level FlightAware ADS-B
Tue 11:03:57 PM 35.3014 -81.5735 52° Northeast 486 559 37,000  Level FlightAware ADS-B
Tue 11:04:32 PM 35.3493 -81.4973 52° Northeast 486 559 37,000  Level FlightAware ADS-B
Tue 11:05:11 PM 35.4041 -81.4100 52° Northeast 484 557 37,000  Level FlightAware ADS-B
Tue 11:05:55 PM 35.4639 -81.3146 52° Northeast 484 557 37,000  Level FlightAware ADS-B
Tue 11:06:25 PM 35.5047 -81.2494 52° Northeast 481 554 37,000  Level FlightAware ADS-B
Tue 11:07:17 PM 35.5730 -81.1400 52° Northeast 478 550 37,000  Level FlightAware ADS-B
Tue 11:07:59 PM 35.6280 -81.0520 52° Northeast 479 551 37,000  Level FlightAware ADS-B
Tue 11:08:42 PM 35.6880 -80.9560 52° Northeast 478 550 37,000  Level FlightAware ADS-B
Tue 11:09:26 PM 35.7480 -80.8590 53° Northeast 478 550 37,000  Level FlightAware ADS-B
Tue 11:10:02 PM 35.7960 -80.7800 53° Northeast 479 551 37,000  Level FlightAware ADS-B
Tue 11:11:12 PM 35.8530 -80.6870 53° Northeast 480 552 37,000  Level FlightAware ADS-B
Tue 11:11:54 PM 35.8350 -80.7160 233° Southwest 483 556 37,000  Level FlightAware ADS-B
Tue 11:12:44 PM 35.8920 -80.6230 53° Northeast 483 556 37,000  Level FlightAware ADS-B
Tue 11:14:07 PM 36.1130 -80.2620 53° Northeast 483 556 37,000  Level FlightAware ADS-B
Tue 11:14:56 PM 36.1690 -80.1700 53° Northeast 483 556 37,000  Level FlightAware ADS-B
Tue 11:15:36 PM 36.2140 -80.0950 53° Northeast 483 556 37,000  Level FlightAware ADS-B
Tue 11:16:12 PM 36.2930 -79.9610 54° Northeast 492 566 37,000  Level FlightAware ADS-B
Tue 11:16:46 PM 36.3400 -79.8830 53° Northeast 492 566 37,000  Level FlightAware ADS-B
Tue 11:17:31 PM 36.4030 -79.7760 54° Northeast 492 566 37,000  Level FlightAware ADS-B
Tue 11:18:16 PM 36.4650 -79.6730 53° Northeast 492 566 37,000  Level FlightAware ADS-B
Tue 11:18:56 PM 36.5190 -79.5820 54° Northeast 490 564 37,000  Level FlightAware ADS-B
Tue 11:19:41 PM 36.5760 -79.4850 54° Northeast 487 560 37,000  Level FlightAware ADS-B
Tue 11:20:24 PM 36.6440 -79.3870 49° Northeast 488 562 37,000  Level FlightAware ADS-B
Tue 11:21:04 PM 36.7070 -79.3060 46° Northeast 488 562 37,000  Level FlightAware ADS-B
Tue 11:21:38 PM 36.7600 -79.2400 45° Northeast 487 560 37,000  Level FlightAware ADS-B
Tue 11:22:20 PM 36.8290 -79.1550 45° Northeast 485 558 37,000  Level FlightAware ADS-B
Tue 11:23:04 PM 36.9000 -79.0680 44° Northeast 485 558 37,000  Level FlightAware ADS-B
Tue 11:23:40 PM 36.9570 -78.9960 45° Northeast 487 560 37,000  Level FlightAware ADS-B
Tue 11:24:20 PM 37.0220 -78.9160 44° Northeast 487 560 37,000  Level FlightAware ADS-B
Tue 11:25:04 PM 37.0920 -78.8280 45° Northeast 488 562 37,000  Level FlightAware ADS-B
Tue 11:25:44 PM 37.1540 -78.7500 45° Northeast 489 563 37,000  Level FlightAware ADS-B
Tue 11:26:28 PM 37.2250 -78.6620 45° Northeast 490 564 37,000  Level FlightAware ADS-B
Tue 11:27:08 PM 37.2910 -78.5800 45° Northeast 490 564 37,000  Level FlightAware ADS-B
Tue 11:27:52 PM 37.3620 -78.4900 45° Northeast 491 565 37,000 -361 Level FlightAware ADS-B
Tue 11:28:31 PM 37.4240 -78.4120 45° Northeast 489 563 36,500 -960 Descending FlightAware ADS-B
Tue 11:29:07 PM 37.4810 -78.3400 45° Northeast 487 560 35,800 -1,154 Descending FlightAware ADS-B
Tue 11:29:49 PM 37.5480 -78.2550 45° Northeast 487 560 35,000 -1,571 Descending FlightAware ADS-B
Tue 11:30:31 PM 37.6160 -78.1680 45° Northeast 481 554 33,600 -1,950 Descending FlightAware ADS-B
Tue 11:31:09 PM 37.6740 -78.0930 46° Northeast 477 549 32,400 -1,923 Descending FlightAware ADS-B
Tue 11:31:49 PM 37.7370 -78.0130 45° Northeast 486 559 31,100 -1,050 Descending FlightAware ADS-B
Tue 11:32:29 PM 37.8010 -77.9300 46° Northeast 497 572 31,000 -92 Descending FlightAware ADS-B
Tue 11:32:54 PM 37.8428 -77.8763 45° Northeast 500 575 31,000  Level FlightAware ADS-B
Tue 11:33:24 PM 37.8900 -77.8108 48° Northeast 499 574 31,000  Level FlightAware ADS-B
Tue 11:33:55 PM 37.9317 -77.7408 53° Northeast 496 571 31,000  Level FlightAware ADS-B
Tue 11:34:26 PM 37.9720 -77.6638 56° Northeast 496 571 31,000  Level FlightAware ADS-B
Tue 11:34:58 PM 38.0118 -77.5866 57° Northeast 496 571 31,000  Level FlightAware ADS-B
Tue 11:35:28 PM 38.0502 -77.5118 57° Northeast 494 568 31,000  Level FlightAware ADS-B
Tue 11:35:59 PM 38.0887 -77.4368 57° Northeast 497 572 31,000  Level FlightAware ADS-B
Tue 11:36:30 PM 38.1276 -77.3611 57° Northeast 497 572 31,000  Level FlightAware ADS-B
Tue 11:37:01 PM 38.1667 -77.2849 57° Northeast 497 572 31,000  Level FlightAware ADS-B
Tue 11:37:31 PM 38.2049 -77.2107 57° Northeast 496 571 31,000  Level FlightAware ADS-B
Tue 11:38:01 PM 38.2426 -77.1369 57° Northeast 496 571 31,000  Level FlightAware ADS-B
Tue 11:38:31 PM 38.2806 -77.0625 57° Northeast 497 572 31,000  Level FlightAware ADS-B
Tue 11:39:01 PM 38.3185 -76.9879 57° Northeast 497 572 31,000  Level FlightAware ADS-B
Tue 11:39:32 PM 38.3572 -76.9117 57° Northeast 497 572 31,000  Level FlightAware ADS-B
Tue 11:40:02 PM 38.3952 -76.8368 57° Northeast 498 573 31,000  Level FlightAware ADS-B
Tue 11:40:34 PM 38.4345 -76.7593 57° Northeast 499 574 31,000  Level FlightAware ADS-B
Tue 11:41:04 PM 38.4728 -76.6836 57° Northeast 496 571 31,000 -800 Level FlightAware ADS-B
Tue 11:41:34 PM 38.5103 -76.6092 57° Northeast 488 562 30,200 -1,574 Descending FlightAware ADS-B
Tue 11:42:05 PM 38.5480 -76.5341 57° Northeast 482 555 29,400 -2,361 Descending FlightAware ADS-B
Tue 11:42:35 PM 38.5843 -76.4615 57° Northeast 484 557 27,800 -2,754 Descending FlightAware ADS-B
Tue 11:43:06 PM 38.6216 -76.3867 57° Northeast 480 552 26,600 -2,459 Descending FlightAware ADS-B
Tue 11:43:36 PM 38.6572 -76.3151 57° Northeast 469 540 25,300 -2,656 Descending FlightAware ADS-B
Tue 11:44:07 PM 38.6932 -76.2430 57° Northeast 464 534 23,900 -3,387 Descending FlightAware ADS-B
Tue 11:44:38 PM 38.7300 -76.1688 58° Northeast 480 552 21,800 -3,738 Descending FlightAware ADS-B
Tue 11:45:08 PM 38.7659 -76.0961 58° Northeast 474 545 20,100 -3,100 Descending FlightAware ADS-B
Tue 11:45:38 PM 38.8012 -76.0247 58° Northeast 460 529 18,700 -1,900 Descending FlightAware ADS-B
Tue 11:46:08 PM 38.8346 -75.9572 58° Northeast 432 497 18,200 -1,377 Descending FlightAware ADS-B
Tue 11:46:39 PM 38.8665 -75.8923 58° Northeast 416 479 17,300 -1,909 Descending FlightAware ADS-B
Tue 11:46:52 PM 38.8806 -75.8654 56° Northeast 415 478 16,800 -2,400 Descending FlightAware ADS-B
Tue 11:47:04 PM 38.8957 -75.8421 50° Northeast 415 478 16,300 -2,000 Descending FlightAware ADS-B
Tue 11:47:13 PM 38.9075 -75.8270 45° Northeast 416 479 16,100 -1,714 Descending FlightAware ADS-B
Tue 11:47:39 PM 38.9482 -75.7858 38° Northeast 413 475 15,300 -1,929 Descending FlightAware ADS-B
Tue 11:48:09 PM 38.9944 -75.7423 36° Northeast 405 466 14,300 -2,073 Descending FlightAware ADS-B
Tue 11:48:34 PM 39.0320 -75.7069 36° Northeast 401 461 13,400 -2,182 Descending FlightAware ADS-B
Tue 11:48:42 PM 39.0440 -75.6972 32° Northeast 400 460 13,100 -1,875 Descending FlightAware ADS-B
Tue 11:48:50 PM 39.0570 -75.6890 26° Northeast 397 457 12,900 -2,000 Descending FlightAware ADS-B
Tue 11:48:57 PM 39.0704 -75.6825 21° North 393 452 12,600 -2,211 Descending FlightAware ADS-B
Tue 11:49:09 PM 39.0908 -75.6760 14° North 388 447 12,200 -2,143 Descending FlightAware ADS-B
Tue 11:49:39 PM 39.1447 -75.6691 North 382 440 11,100 -2,164 Descending FlightAware ADS-B
Tue 11:50:10 PM 39.1974 -75.6637 North 376 433 10,000 -1,733 Descending FlightAware ADS-B
Tue 11:50:24 PM 39.2218 -75.6612 North 374 430 9,800 -600 Descending FlightAware ADS-B
Tue 11:50:40 PM 39.2506 -75.6580 North 376 433 9,700 -261 Descending FlightAware ADS-B
Tue 11:50:47 PM 39.2619 -75.6559 North 378 435 9,700  Level FlightAware ADS-B
Tue 11:50:52 PM 39.2712 -75.6531 13° North 379 436 9,700 600 Level FlightAware ADS-B
Tue 11:50:57 PM 39.2786 -75.6503 16° North 381 438 9,800 667 Climbing FlightAware ADS-B
Tue 11:51:01 PM 39.2856 -75.6471 19° North 383 441 9,800  Level FlightAware ADS-B
Tue 11:51:09 PM 39.2977 -75.6401 24° Northeast 386 444 9,800  Level FlightAware ADS-B
Tue 11:51:14 PM 39.3067 -75.6336 29° Northeast 387 445 9,800  Level FlightAware ADS-B
Tue 11:51:28 PM 39.3281 -75.6155 33° Northeast 388 447 9,800  Level FlightAware ADS-B
Tue 11:51:44 PM 39.3511 -75.5956 34° Northeast 387 445 9,800  Level FlightAware ADS-B
Tue 11:51:55 PM 39.3669 -75.5810 36° Northeast 386 444 9,800  Level FlightAware ADS-B
Tue 11:52:10 PM 39.3886 -75.5580 39° Northeast 387 445 9,800  Level FlightAware ADS-B
Tue 11:52:25 PM 39.4095 -75.5352 40° Northeast 387 445 9,800  Level FlightAware ADS-B
Tue 11:52:40 PM 39.4301 -75.5127 40° Northeast 388 447 9,800  Level FlightAware ADS-B
Tue 11:52:55 PM 39.4500 -75.4911 40° Northeast 389 448 9,800 -194 Level FlightAware ADS-B
Tue 11:53:11 PM 39.4717 -75.4680 39° Northeast 388 447 9,700 -194 Descending FlightAware ADS-B
Tue 11:53:26 PM 39.4926 -75.4458 39° Northeast 372 428 9,700  Level FlightAware ADS-B
Tue 11:53:42 PM 39.5138 -75.4234 39° Northeast 355 409 9,700  Level FlightAware ADS-B
Tue 11:53:57 PM 39.5325 -75.4036 39° Northeast 338 389 9,700 -387 Level FlightAware ADS-B
Tue 11:54:13 PM 39.5506 -75.3844 39° Northeast 329 379 9,500 -968 Descending FlightAware ADS-B
Tue 11:54:28 PM 39.5683 -75.3653 40° Northeast 326 375 9,200 -1,400 Descending FlightAware ADS-B
Tue 11:54:43 PM 39.5859 -75.3461 40° Northeast 327 376 8,800 -1,655 Descending FlightAware ADS-B
Tue 11:54:57 PM 39.6014 -75.3292 40° Northeast 325 374 8,400 -1,448 Descending FlightAware ADS-B
Tue 11:55:12 PM 39.6192 -75.3100 40° Northeast 322 371 8,100 -1,400 Descending FlightAware ADS-B
Tue 11:55:27 PM 39.6369 -75.2909 40° Northeast 320 368 7,700 -1,448 Descending FlightAware ADS-B
Tue 11:55:41 PM 39.6526 -75.2744 39° Northeast 318 366 7,400 -1,241 Descending FlightAware ADS-B
Tue 11:55:56 PM 39.6700 -75.2560 39° Northeast 315 362 7,100 -1,400 Descending FlightAware ADS-B
Tue 11:56:11 PM 39.6875 -75.2377 39° Northeast 313 360 6,700 -1,355 Descending FlightAware ADS-B
Tue 11:56:27 PM 39.7045 -75.2198 39° Northeast 311 358 6,400 -1,355 Descending FlightAware ADS-B
Tue 11:56:42 PM 39.7214 -75.2017 39° Northeast 309 356 6,000 -1,800 Descending FlightAware ADS-B
Tue 11:56:57 PM 39.7380 -75.1839 40° Northeast 305 351 5,500 -2,129 Descending FlightAware ADS-B
Tue 11:57:13 PM 39.7555 -75.1648 40° Northeast 301 346 4,900 -2,438 Descending FlightAware ADS-B
Tue 11:57:29 PM 39.7729 -75.1463 39° Northeast 299 344 4,200 -1,750 Descending FlightAware ADS-B
Tue 11:58:01 PM 39.8082 -75.1094 39° Northeast 279 321 3,500 -1,227 Descending FlightAware ADS-B
Tue 11:58:13 PM 39.8192 -75.0978 39° Northeast 267 307 3,300 -889 Descending FlightAware ADS-B
Tue 11:58:28 PM 39.8333 -75.0833 38° Northeast 252 290 3,100 -1,000 Descending FlightAware ADS-B
Tue 11:58:37 PM 39.8411 -75.0754 38° Northeast 245 282 2,900 -1,143 Descending FlightAware ADS-B
Tue 11:58:49 PM 39.8527 -75.0682 25° Northeast 236 272 2,700 -818 Descending FlightAware ADS-B
Tue 11:58:59 PM 39.8633 -75.0670 North 227 261 2,600 -706 Descending FlightAware ADS-B
Tue 11:59:06 PM 39.8712 -75.0675 357° North 218 251 2,500 -545 Descending FlightAware ADS-B
Tue 11:59:10 PM 39.8747 -75.0682 351° North 213 245 2,500 -600 Level FlightAware ADS-B
Tue 11:59:16 PM 39.8800 -75.0707 340° North 205 236 2,400 -1,200 Descending FlightAware ADS-B
Tue 11:59:20 PM 39.8837 -75.0737 328° Northwest 194 223 2,300 -750 Descending FlightAware ADS-B
Tue 11:59:24 PM 39.8863 -75.0768 318° Northwest 185 213 2,300  Level FlightAware ADS-B
Tue 11:59:28 PM 39.8884 -75.0801 310° West 174 200 2,300 -750 Level FlightAware ADS-B
Tue 11:59:32 PM 39.8898 -75.0831 301° West 165 190 2,200 -750 Descending FlightAware ADS-B
Tue 11:59:36 PM 39.8911 -75.0872 292° West 154 177 2,200 -545 Level FlightAware ADS-B
Tue 11:59:43 PM 39.8926 -75.0933 288° West 148 170 2,100 -923 Descending FlightAware ADS-B
Tue 11:59:49 PM 39.8933 -75.0977 282° West 143 165 2,000 -600 Descending FlightAware ADS-B
Tue 11:59:53 PM 39.8936 -75.1018 275° West 139 160 2,000 -667 Level FlightAware ADS-B
Tue 11:59:58 PM 39.8937 -75.1060 272° West 136 157 1,900 -667 Descending FlightAware ADS-B
Wed 12:00:02 AM 39.8935 -75.1086 264° West 134 154 1,900 -667 Level FlightAware ADS-B
Wed 12:00:07 AM 39.8930 -75.1129 261° West 130 150 1,800 -1,091 Descending FlightAware ADS-B
Wed 12:00:13 AM 39.8923 -75.1177 259° West 128 147 1,700 -818 Descending FlightAware ADS-B
Wed 12:00:29 AM 39.8901 -75.1287 255° West 121 139 1,500 -545 Descending FlightAware ADS-B
Wed 12:00:35 AM 39.8892 -75.1332 255° West 119 137 1,500 -429 Level FlightAware ADS-B
Wed 12:00:43 AM 39.8878 -75.1387 252° West 118 136 1,400 -923 Descending FlightAware ADS-B
Wed 12:00:48 AM 39.8871 -75.1423 256° West 116 133 1,300 -800 Descending FlightAware ADS-B
Wed 12:00:58 AM 39.8860 -75.1485 257° West 108 124 1,200 -545 Descending FlightAware ADS-B
Wed 12:01:10 AM 39.8846 -75.1562 257° West 107 123 1,100 -353 Descending FlightAware ADS-B
Wed 12:01:15 AM 39.8841 -75.1589 256° West 107 123 1,100 -600 Level FlightAware ADS-B
Wed 12:01:30 AM 39.8822 -75.1687 256° West 109 125 900 -600 Descending FlightAware ADS-B
Wed 12:01:45 AM 39.8803 -75.1778 255° West 110 127 800 -545 Descending FlightAware ADS-B
Wed 12:01:52 AM 39.8793 -75.1823 254° West 111 128 700 -600 Descending FlightAware ADS-B
Wed 12:02:05 AM 39.8776 -75.1912 256° West 114 131 600 -545 Descending FlightAware ADS-B
Wed 12:02:14 AM 39.8764 -75.1969 255° West 115 132 500 -800 Descending FlightAware ADS-B
Wed 12:02:20 AM 39.8756 -75.2008 255° West 116 133 400 -667 Descending FlightAware ADS-B
Wed 12:02:32 AM 39.8739 -75.2092 255° West 119 137 300 -720 Descending FlightAware ADS-B
Wed 12:02:45 AM 39.8720 -75.2186 255° West 122 140 100 -923 Descending FlightAware ADS-B

Login

Don't have an account? Register now (free) for customized features, flight alerts, and more!